createdAt,value
2023-03-29T00:01:34.936Z,83.81
2023-03-29T00:04:04.562Z,84.41
2023-03-29T00:06:33.186Z,84.96
2023-03-29T00:09:00.364Z,84.49
2023-03-29T00:11:27.413Z,84.06
2023-03-29T00:13:54.210Z,84.69
2023-03-29T00:16:20.784Z,84.07
2023-03-29T00:18:47.474Z,83.88
2023-03-29T00:21:14.101Z,84.05
2023-03-29T00:23:40.716Z,83.81
2023-03-29T00:26:08.399Z,84.74
2023-03-29T00:28:35.438Z,84.13
2023-03-29T00:31:07.398Z,83.36
2023-03-29T00:33:34.166Z,83.55
2023-03-29T00:36:01.750Z,83.99
2023-03-29T00:38:28.410Z,84.16
2023-03-29T00:40:54.877Z,84.18
2023-03-29T00:43:21.401Z,84.41
2023-03-29T00:45:48.379Z,84.44
2023-03-29T00:48:22.301Z,83.98
2023-03-29T00:51:00.029Z,84.03
2023-03-29T00:53:35.836Z,84.51
2023-03-29T00:56:06.251Z,84.17
2023-03-29T00:58:38.206Z,83.86
2023-03-29T01:01:10.779Z,83.98
2023-03-29T01:03:46.253Z,83.32
2023-03-29T01:06:16.015Z,83.81
2023-03-29T01:08:53.374Z,83.71
2023-03-29T01:11:29.132Z,83.06
2023-03-29T01:14:00.106Z,82.39
2023-03-29T01:16:28.965Z,82.81
2023-03-29T01:18:58.251Z,82.51
2023-03-29T01:21:33.366Z,81.80
2023-03-29T01:24:10.105Z,80.97
2023-03-29T01:26:47.507Z,80.90
2023-03-29T01:29:39.129Z,80.96
2023-03-29T01:32:17.154Z,80.41
2023-03-29T01:35:00.943Z,79.79
2023-03-29T01:37:56.815Z,80.08
2023-03-29T01:40:24.277Z,78.94
2023-03-29T01:43:01.083Z,79.96
2023-03-29T01:45:37.002Z,79.74
2023-03-29T01:48:11.849Z,78.82
2023-03-29T01:50:38.368Z,79.10
2023-03-29T01:53:12.636Z,78.63
2023-03-29T01:55:43.604Z,78.73
2023-03-29T01:58:13.501Z,78.42
2023-03-29T02:00:42.165Z,78.89
2023-03-29T02:03:10.275Z,78.39
2023-03-29T02:05:39.418Z,78.36
2023-03-29T02:08:09.192Z,78.63
2023-03-29T02:10:36.782Z,78.28
2023-03-29T02:13:04.062Z,79.38
2023-03-29T02:15:30.516Z,79.69
2023-03-29T02:17:57.039Z,79.14
2023-03-29T02:20:31.739Z,79.75
2023-03-29T02:23:09.709Z,79.70
2023-03-29T02:25:37.831Z,79.71
2023-03-29T02:28:06.708Z,80.02
2023-03-29T02:30:49.292Z,80.25
2023-03-29T02:33:32.771Z,79.81
2023-03-29T02:36:04.595Z,80.61
2023-03-29T02:38:32.724Z,80.87
2023-03-29T02:41:00.859Z,80.45
2023-03-29T02:43:28.871Z,81.24
2023-03-29T02:45:56.036Z,80.84
2023-03-29T02:48:26.675Z,82.09
2023-03-29T02:50:58.328Z,81.63
2023-03-29T02:53:30.554Z,81.59
2023-03-29T02:55:57.783Z,81.50
2023-03-29T02:58:26.567Z,81.66
2023-03-29T03:00:53.723Z,81.95
2023-03-29T03:03:20.772Z,82.31
2023-03-29T03:05:47.714Z,81.57
2023-03-29T03:08:14.219Z,81.84
2023-03-29T03:10:40.959Z,82.53
2023-03-29T03:13:07.401Z,82.40
2023-03-29T03:15:35.792Z,82.27
2023-03-29T03:18:03.698Z,82.84
2023-03-29T03:20:31.062Z,82.99
2023-03-29T03:22:57.472Z,83.48
2023-03-29T03:25:24.048Z,83.74
2023-03-29T03:27:51.858Z,82.94
2023-03-29T03:30:18.907Z,83.70
2023-03-29T03:32:45.428Z,83.72
2023-03-29T03:35:12.435Z,83.98
2023-03-29T03:37:39.616Z,83.91
2023-03-29T03:40:11.999Z,84.13
2023-03-29T03:42:39.579Z,83.88
2023-03-29T03:45:08.209Z,83.90
2023-03-29T03:47:37.322Z,83.96
2023-03-29T03:50:05.482Z,83.42
2023-03-29T03:52:31.998Z,83.93
2023-03-29T03:54:58.421Z,83.99
2023-03-29T03:57:24.854Z,83.78
2023-03-29T03:59:52.240Z,84.05
2023-03-29T04:02:20.156Z,83.66
2023-03-29T04:04:46.651Z,83.57
2023-03-29T04:07:14.374Z,83.34
2023-03-29T04:09:40.870Z,83.93
2023-03-29T04:12:07.465Z,84.09
2023-03-29T04:14:33.910Z,83.93
2023-03-29T04:17:00.441Z,83.66
2023-03-29T04:19:26.983Z,83.08
2023-03-29T04:21:53.368Z,83.58
2023-03-29T04:24:19.820Z,83.36
2023-03-29T04:26:47.605Z,83.36
2023-03-29T04:29:14.019Z,83.00
2023-03-29T04:31:40.514Z,82.87
2023-03-29T04:34:07.132Z,82.95
2023-03-29T04:36:33.547Z,83.47
2023-03-29T04:39:01.670Z,82.90
2023-03-29T04:41:28.624Z,82.92
2023-03-29T04:43:55.916Z,82.89
2023-03-29T04:46:25.446Z,83.60
2023-03-29T04:48:52.356Z,83.06
2023-03-29T04:51:20.044Z,83.37
2023-03-29T04:53:46.512Z,83.37
2023-03-29T04:56:13.271Z,83.42
2023-03-29T04:58:39.682Z,83.08
2023-03-29T05:01:06.173Z,83.68
2023-03-29T05:03:32.604Z,83.53
2023-03-29T05:06:06.695Z,83.97
2023-03-29T05:08:34.785Z,83.62
2023-03-29T05:11:01.937Z,83.50
2023-03-29T05:13:28.517Z,83.91
2023-03-29T05:15:54.962Z,83.65
2023-03-29T05:18:22.127Z,83.91
2023-03-29T05:20:51.236Z,83.16
2023-03-29T05:23:17.637Z,83.61
2023-03-29T05:25:44.039Z,83.20
2023-03-29T05:28:10.528Z,82.49
2023-03-29T05:30:36.976Z,83.22
2023-03-29T05:33:05.542Z,83.06
2023-03-29T05:35:32.223Z,83.23
2023-03-29T05:38:00.605Z,83.17
2023-03-29T05:40:27.288Z,82.90
2023-03-29T05:42:54.030Z,82.46
2023-03-29T05:45:20.540Z,82.71
2023-03-29T05:47:46.922Z,82.69
2023-03-29T05:50:13.697Z,82.36
2023-03-29T05:52:41.005Z,82.14
2023-03-29T05:55:08.058Z,82.79
2023-03-29T05:57:38.478Z,82.63
2023-03-29T06:00:16.719Z,82.29
2023-03-29T06:02:43.725Z,82.37
2023-03-29T06:05:10.324Z,82.33
2023-03-29T06:07:38.267Z,83.30
2023-03-29T06:10:09.622Z,82.17
2023-03-29T06:12:36.440Z,82.35
2023-03-29T06:15:05.081Z,81.97
2023-03-29T06:17:33.696Z,81.31
2023-03-29T06:20:00.824Z,81.58
2023-03-29T06:22:27.733Z,81.67
2023-03-29T06:24:54.500Z,81.90
2023-03-29T06:27:21.182Z,81.65
2023-03-29T06:29:48.178Z,81.80
2023-03-29T06:32:14.822Z,82.32
2023-03-29T06:34:41.568Z,81.97
2023-03-29T06:37:08.390Z,82.31
2023-03-29T06:39:34.962Z,82.17
2023-03-29T06:42:10.065Z,82.51
2023-03-29T06:44:43.424Z,82.08
2023-03-29T06:47:09.816Z,82.38
2023-03-29T06:49:36.265Z,82.37
2023-03-29T06:52:02.728Z,82.47
2023-03-29T06:54:29.089Z,83.12
2023-03-29T06:56:55.602Z,83.29
2023-03-29T06:59:22.283Z,83.74
2023-03-29T07:01:49.177Z,84.43
2023-03-29T07:04:16.056Z,84.07
2023-03-29T07:06:48.271Z,85.08
2023-03-29T07:09:18.368Z,85.42
2023-03-29T07:11:46.658Z,85.00
2023-03-29T07:14:13.063Z,84.90
2023-03-29T07:16:39.537Z,85.42
2023-03-29T07:19:06.052Z,84.36
2023-03-29T07:21:33.375Z,84.56
2023-03-29T07:24:01.687Z,84.31
2023-03-29T07:26:30.315Z,84.08
2023-03-29T07:28:56.895Z,83.99
2023-03-29T07:31:23.304Z,84.00
2023-03-29T07:33:52.446Z,83.16
2023-03-29T07:36:19.725Z,83.51
2023-03-29T07:38:46.169Z,83.74
2023-03-29T07:41:12.695Z,83.52
2023-03-29T07:43:39.203Z,83.18
2023-03-29T07:46:06.726Z,83.56
2023-03-29T07:48:33.778Z,83.13
2023-03-29T07:51:01.356Z,82.40
2023-03-29T07:53:29.807Z,82.56
2023-03-29T07:55:56.963Z,81.93
2023-03-29T07:58:23.401Z,82.08
2023-03-29T08:00:50.677Z,82.28
2023-03-29T08:03:17.217Z,81.76
2023-03-29T08:05:43.794Z,81.30
2023-03-29T08:08:10.301Z,81.76
2023-03-29T08:10:39.224Z,82.23
2023-03-29T08:13:08.249Z,81.64
2023-03-29T08:15:36.466Z,82.17
2023-03-29T08:18:02.937Z,82.46
2023-03-29T08:20:29.517Z,81.95
2023-03-29T08:22:55.977Z,82.52
2023-03-29T08:25:22.826Z,81.95
2023-03-29T08:27:49.421Z,82.15
2023-03-29T08:30:15.938Z,82.31
2023-03-29T08:32:42.764Z,82.31
2023-03-29T08:35:09.693Z,81.26
2023-03-29T08:37:37.258Z,82.33
2023-03-29T08:40:05.514Z,82.35
2023-03-29T08:43:04.766Z,81.60
2023-03-29T08:45:43.995Z,82.28
2023-03-29T08:48:31.792Z,81.74
2023-03-29T08:51:03.366Z,82.54
2023-03-29T08:53:36.334Z,82.38
2023-03-29T08:56:13.214Z,82.48
2023-03-29T08:58:40.511Z,81.94
2023-03-29T09:01:09.434Z,82.72
2023-03-29T09:03:47.819Z,82.83
2023-03-29T09:06:16.046Z,82.03
2023-03-29T09:08:46.633Z,82.31
2023-03-29T09:11:26.204Z,81.90
2023-03-29T09:14:20.469Z,82.79
2023-03-29T09:16:56.080Z,82.46
2023-03-29T09:19:42.503Z,82.68
2023-03-29T09:22:43.711Z,82.76
2023-03-29T09:25:24.090Z,82.81
2023-03-29T09:27:59.974Z,82.78
2023-03-29T09:30:32.269Z,82.90
2023-03-29T09:33:27.371Z,82.73
2023-03-29T09:36:07.902Z,82.91
2023-03-29T09:38:40.055Z,83.00
2023-03-29T09:41:30.428Z,82.50
2023-03-29T09:44:00.363Z,82.66
2023-03-29T09:46:37.855Z,83.00
2023-03-29T09:49:10.304Z,83.59
2023-03-29T09:51:38.430Z,83.03
2023-03-29T09:54:04.995Z,82.18
2023-03-29T09:56:31.725Z,82.41
2023-03-29T09:58:58.124Z,82.98
2023-03-29T10:01:25.873Z,83.12
2023-03-29T10:03:53.771Z,83.10
2023-03-29T10:06:24.089Z,83.54
2023-03-29T10:08:57.761Z,83.58
2023-03-29T10:11:35.193Z,83.56
2023-03-29T10:14:16.841Z,83.08
2023-03-29T10:16:47.737Z,83.31
2023-03-29T10:19:30.878Z,83.48
2023-03-29T10:22:00.397Z,82.86
2023-03-29T10:24:27.474Z,82.06
2023-03-29T10:26:57.713Z,81.91
2023-03-29T10:29:25.488Z,82.07
2023-03-29T10:31:52.876Z,82.80
2023-03-29T10:34:25.183Z,82.10
2023-03-29T10:36:58.669Z,81.54
2023-03-29T10:39:29.203Z,81.08
2023-03-29T10:41:55.973Z,82.41
2023-03-29T10:44:41.063Z,82.05
2023-03-29T10:47:20.234Z,82.65
2023-03-29T10:49:53.800Z,83.09
2023-03-29T10:52:21.840Z,84.16
2023-03-29T10:54:50.934Z,85.36
2023-03-29T10:57:29.315Z,86.31
2023-03-29T11:00:06.960Z,86.79
2023-03-29T11:03:12.485Z,85.83
2023-03-29T11:05:52.225Z,86.26
2023-03-29T11:08:26.475Z,86.45
2023-03-29T11:11:13.347Z,86.89
2023-03-29T11:14:03.710Z,87.23
2023-03-29T11:16:39.054Z,88.35
2023-03-29T11:19:33.224Z,88.51
2023-03-29T11:22:05.744Z,91.08
2023-03-29T11:25:00.040Z,89.93
2023-03-29T11:27:39.847Z,90.06
2023-03-29T11:30:51.776Z,91.28
2023-03-29T11:33:42.197Z,90.57
2023-03-29T11:36:34.806Z,90.58
2023-03-29T11:39:28.571Z,89.71
2023-03-29T11:42:03.865Z,89.11
2023-03-29T11:44:31.451Z,89.35
2023-03-29T11:47:03.613Z,88.97
2023-03-29T11:49:37.304Z,87.83
2023-03-29T11:52:11.547Z,87.91
2023-03-29T11:54:44.769Z,87.57
2023-03-29T11:57:18.782Z,87.30
2023-03-29T11:59:51.308Z,87.68
2023-03-29T12:02:39.978Z,87.44
2023-03-29T12:05:22.137Z,86.79
2023-03-29T12:08:38.119Z,86.64
2023-03-29T12:11:17.396Z,86.11
2023-03-29T12:13:52.392Z,87.23
2023-03-29T12:16:32.424Z,86.68
2023-03-29T12:19:05.952Z,86.98
2023-03-29T12:21:35.243Z,86.47
2023-03-29T12:24:02.294Z,86.63
2023-03-29T12:26:37.997Z,86.59
2023-03-29T12:29:35.774Z,86.55
2023-03-29T12:32:38.200Z,86.83
2023-03-29T12:35:16.782Z,87.19
2023-03-29T12:38:21.942Z,87.71
2023-03-29T12:40:55.776Z,87.83
2023-03-29T12:43:27.218Z,89.44
2023-03-29T12:46:00.266Z,88.97
2023-03-29T12:48:29.696Z,89.02
2023-03-29T12:51:01.787Z,88.89
2023-03-29T12:53:34.614Z,88.87
2023-03-29T12:56:01.842Z,89.92
2023-03-29T12:58:59.558Z,89.86
2023-03-29T13:01:26.509Z,90.07
2023-03-29T13:04:19.318Z,89.29
2023-03-29T13:06:48.462Z,89.79
2023-03-29T13:09:32.224Z,89.18
2023-03-29T13:12:06.893Z,88.72
2023-03-29T13:14:37.394Z,89.28
2023-03-29T13:17:17.702Z,89.53
2023-03-29T13:19:49.800Z,89.24
2023-03-29T13:22:44.228Z,88.26
2023-03-29T13:25:25.640Z,87.57
2023-03-29T13:28:02.198Z,88.90
2023-03-29T13:30:49.097Z,88.27
2023-03-29T13:33:38.099Z,87.75
2023-03-29T13:36:26.165Z,87.93
2023-03-29T13:38:55.344Z,87.96
2023-03-29T13:41:39.855Z,88.67
2023-03-29T13:44:21.835Z,88.16
2023-03-29T13:47:00.521Z,87.99
2023-03-29T13:49:31.840Z,87.03
2023-03-29T13:52:21.256Z,86.52
2023-03-29T13:54:58.094Z,86.35
2023-03-29T13:57:43.902Z,86.21
2023-03-29T14:00:22.756Z,85.63
2023-03-29T14:02:52.160Z,85.83
2023-03-29T14:05:28.812Z,85.69
2023-03-29T14:07:55.837Z,85.76
2023-03-29T14:10:37.784Z,85.16
2023-03-29T14:13:04.464Z,85.02
2023-03-29T14:15:49.611Z,85.66
2023-03-29T14:18:19.252Z,85.47
2023-03-29T14:20:49.013Z,84.90
2023-03-29T14:23:21.260Z,84.96
2023-03-29T14:25:48.049Z,85.15
2023-03-29T14:28:28.383Z,85.96
2023-03-29T14:30:55.937Z,84.91
2023-03-29T14:33:31.062Z,85.00
2023-03-29T14:36:00.309Z,84.78
2023-03-29T14:38:28.388Z,84.52
2023-03-29T14:40:59.490Z,84.20
2023-03-29T14:43:30.897Z,84.79
2023-03-29T14:46:04.714Z,83.41
2023-03-29T14:48:33.165Z,83.09
2023-03-29T14:51:00.876Z,82.39
2023-03-29T14:53:28.835Z,82.72
2023-03-29T14:55:55.631Z,82.21
2023-03-29T14:58:32.319Z,81.40
2023-03-29T15:01:05.029Z,80.81
2023-03-29T15:03:45.198Z,81.47
2023-03-29T15:06:13.971Z,81.07
2023-03-29T15:08:48.195Z,81.19
2023-03-29T15:11:27.622Z,79.73
2023-03-29T15:14:08.786Z,80.45
2023-03-29T15:16:40.532Z,81.36
2023-03-29T15:19:07.220Z,80.19
2023-03-29T15:21:35.427Z,79.83
2023-03-29T15:24:05.551Z,81.26
2023-03-29T15:26:37.605Z,79.51
2023-03-29T15:29:13.156Z,79.92
2023-03-29T15:31:41.920Z,79.16
2023-03-29T15:34:13.803Z,78.18
2023-03-29T15:36:42.825Z,78.93
2023-03-29T15:39:14.414Z,78.18
2023-03-29T15:41:42.180Z,78.72
2023-03-29T15:44:09.608Z,77.63
2023-03-29T15:46:36.469Z,77.70
2023-03-29T15:49:04.868Z,77.82
2023-03-29T15:51:31.392Z,77.90
2023-03-29T15:53:57.799Z,78.65
2023-03-29T15:56:24.174Z,77.63
2023-03-29T15:58:50.929Z,78.10
2023-03-29T16:01:34.129Z,77.88
2023-03-29T16:04:02.791Z,78.92
2023-03-29T16:06:29.330Z,78.12
2023-03-29T16:08:57.331Z,78.15
2023-03-29T16:11:24.095Z,78.41
2023-03-29T16:13:51.461Z,78.62
2023-03-29T16:16:18.081Z,78.49
2023-03-29T16:18:44.605Z,78.45
2023-03-29T16:21:18.087Z,79.07
2023-03-29T16:23:48.178Z,78.58
2023-03-29T16:26:16.578Z,79.04
2023-03-29T16:28:43.502Z,79.73
2023-03-29T16:31:11.818Z,79.06
2023-03-29T16:33:39.417Z,79.26
2023-03-29T16:36:06.697Z,79.49
2023-03-29T16:38:33.756Z,79.86
2023-03-29T16:41:00.548Z,80.22
2023-03-29T16:43:27.691Z,79.28
2023-03-29T16:45:54.284Z,80.47
2023-03-29T16:48:20.784Z,81.82
2023-03-29T16:50:50.478Z,81.67
2023-03-29T16:53:21.685Z,82.22
2023-03-29T16:55:48.395Z,81.55
2023-03-29T16:58:15.411Z,82.17
2023-03-29T17:00:43.074Z,81.83
2023-03-29T17:03:10.982Z,82.06
2023-03-29T17:05:41.256Z,82.56
2023-03-29T17:08:09.881Z,81.88
2023-03-29T17:10:40.789Z,82.95
2023-03-29T17:13:08.116Z,83.21
2023-03-29T17:15:36.137Z,83.26
2023-03-29T17:18:04.890Z,82.66
2023-03-29T17:20:31.844Z,83.39
2023-03-29T17:22:58.408Z,83.19
2023-03-29T17:25:24.785Z,82.95
2023-03-29T17:27:51.755Z,83.94
2023-03-29T17:30:18.343Z,83.99
2023-03-29T17:32:45.522Z,84.54
2023-03-29T17:35:12.772Z,84.25
2023-03-29T17:37:39.424Z,84.17
2023-03-29T17:40:15.390Z,84.06
2023-03-29T17:42:42.590Z,84.85
2023-03-29T17:45:10.940Z,85.44
2023-03-29T17:47:38.550Z,85.44
2023-03-29T17:50:06.685Z,86.14
2023-03-29T17:52:33.558Z,85.84
2023-03-29T17:55:00.192Z,86.50
2023-03-29T17:57:26.842Z,86.94
2023-03-29T17:59:53.386Z,86.62
2023-03-29T18:02:23.107Z,86.52
2023-03-29T18:04:50.566Z,86.87
2023-03-29T18:07:17.412Z,87.19
2023-03-29T18:09:43.852Z,87.33
2023-03-29T18:12:10.280Z,86.96
2023-03-29T18:14:36.918Z,87.27
2023-03-29T18:17:04.050Z,87.72
2023-03-29T18:19:30.840Z,88.11
2023-03-29T18:21:57.412Z,88.09
2023-03-29T18:24:23.838Z,88.03
2023-03-29T18:26:50.317Z,88.27
2023-03-29T18:29:16.689Z,88.06
2023-03-29T18:31:43.757Z,87.63
2023-03-29T18:34:10.273Z,88.00
2023-03-29T18:36:37.103Z,89.18
2023-03-29T18:39:06.887Z,89.17
2023-03-29T18:41:35.622Z,89.70
2023-03-29T18:44:02.342Z,89.27
2023-03-29T18:46:31.173Z,89.22
2023-03-29T18:48:58.858Z,89.57
2023-03-29T18:51:28.723Z,89.53
2023-03-29T18:53:55.909Z,89.62
2023-03-29T18:56:22.907Z,90.07
2023-03-29T18:58:49.438Z,89.96
2023-03-29T19:01:16.167Z,89.71
2023-03-29T19:03:42.722Z,89.89
2023-03-29T19:06:09.778Z,90.07
2023-03-29T19:08:38.638Z,90.41
2023-03-29T19:11:08.325Z,90.84
2023-03-29T19:13:35.406Z,90.55
2023-03-29T19:16:02.430Z,91.41
2023-03-29T19:18:29.206Z,91.59
2023-03-29T19:20:56.178Z,91.27
2023-03-29T19:23:28.319Z,90.70
2023-03-29T19:25:57.112Z,90.70
2023-03-29T19:28:24.869Z,90.72
2023-03-29T19:30:51.623Z,91.12
2023-03-29T19:33:18.392Z,91.79
2023-03-29T19:35:44.919Z,92.39
2023-03-29T19:38:11.595Z,91.85
2023-03-29T19:40:38.366Z,92.44
2023-03-29T19:43:05.128Z,91.84
2023-03-29T19:45:31.655Z,93.07
2023-03-29T19:48:02.861Z,92.98
2023-03-29T19:50:31.576Z,94.08
2023-03-29T19:52:58.460Z,94.24
2023-03-29T19:55:25.924Z,94.20
2023-03-29T19:57:52.435Z,94.63
2023-03-29T20:00:24.200Z,95.28
2023-03-29T20:02:55.608Z,94.74
2023-03-29T20:05:22.800Z,95.16
2023-03-29T20:07:49.534Z,95.21
2023-03-29T20:10:16.743Z,95.02
2023-03-29T20:12:43.298Z,95.59
2023-03-29T20:15:10.522Z,96.58
2023-03-29T20:17:40.691Z,96.59
2023-03-29T20:20:12.007Z,95.98
2023-03-29T20:22:42.015Z,96.81
2023-03-29T20:25:09.403Z,96.86
2023-03-29T20:27:36.022Z,97.26
2023-03-29T20:30:03.324Z,96.74
2023-03-29T20:32:30.008Z,97.76
2023-03-29T20:34:56.526Z,96.76
2023-03-29T20:37:23.059Z,97.38
2023-03-29T20:39:49.710Z,97.70
2023-03-29T20:42:16.178Z,97.47
2023-03-29T20:44:50.288Z,98.22
2023-03-29T20:47:18.950Z,98.22
2023-03-29T20:49:45.439Z,98.50
2023-03-29T20:52:15.446Z,98.29
2023-03-29T20:54:43.729Z,97.74
2023-03-29T20:57:13.955Z,98.53
2023-03-29T20:59:41.565Z,97.67
2023-03-29T21:02:11.279Z,97.90
2023-03-29T21:04:37.783Z,97.52
2023-03-29T21:07:06.254Z,97.68
2023-03-29T21:09:34.139Z,97.41
2023-03-29T21:12:00.777Z,97.09
2023-03-29T21:14:30.144Z,97.14
2023-03-29T21:16:56.552Z,97.09
2023-03-29T21:19:24.124Z,96.59
2023-03-29T21:21:52.133Z,96.43
2023-03-29T21:24:19.140Z,96.63
2023-03-29T21:26:46.255Z,96.08
2023-03-29T21:29:13.329Z,96.00
2023-03-29T21:31:40.061Z,95.90
2023-03-29T21:34:06.605Z,95.41
2023-03-29T21:36:32.967Z,95.54
2023-03-29T21:38:59.455Z,95.29
2023-03-29T21:41:26.257Z,95.85
2023-03-29T21:43:52.645Z,95.47
2023-03-29T21:46:19.172Z,94.80
2023-03-29T21:48:45.711Z,94.89
2023-03-29T21:51:12.161Z,94.49
2023-03-29T21:53:38.654Z,94.60
2023-03-29T21:56:05.472Z,94.50
2023-03-29T21:58:32.077Z,94.94
2023-03-29T22:00:58.591Z,94.54
2023-03-29T22:03:25.555Z,93.85
2023-03-29T22:06:00.479Z,93.91
2023-03-29T22:08:27.050Z,94.30
2023-03-29T22:10:56.782Z,93.56
2023-03-29T22:13:24.932Z,94.26
2023-03-29T22:15:56.001Z,94.05
2023-03-29T22:18:22.564Z,94.00
2023-03-29T22:20:49.301Z,93.35
2023-03-29T22:23:15.734Z,93.60
2023-03-29T22:25:42.097Z,92.75
2023-03-29T22:28:08.525Z,93.58
2023-03-29T22:30:35.061Z,93.00
2023-03-29T22:33:01.566Z,92.72
2023-03-29T22:35:28.036Z,93.00
2023-03-29T22:37:54.504Z,92.69
2023-03-29T22:40:20.980Z,92.80
2023-03-29T22:42:47.380Z,92.88
2023-03-29T22:45:14.248Z,91.97
2023-03-29T22:47:40.915Z,91.48
2023-03-29T22:50:08.004Z,90.55
2023-03-29T22:52:34.553Z,90.44
2023-03-29T22:55:01.102Z,89.77
2023-03-29T22:57:27.563Z,89.08
2023-03-29T22:59:54.058Z,89.20
2023-03-29T23:02:20.493Z,88.76
2023-03-29T23:04:47.457Z,87.25
2023-03-29T23:07:13.951Z,87.57
2023-03-29T23:09:40.886Z,87.04
2023-03-29T23:12:07.584Z,86.23
2023-03-29T23:14:34.100Z,86.35
2023-03-29T23:17:00.604Z,85.75
2023-03-29T23:19:27.005Z,85.55
2023-03-29T23:21:55.329Z,85.97
2023-03-29T23:24:21.868Z,85.71
2023-03-29T23:26:48.984Z,85.64
2023-03-29T23:29:15.425Z,85.27
2023-03-29T23:31:41.933Z,85.04
2023-03-29T23:34:09.245Z,84.36
2023-03-29T23:36:35.644Z,84.15
2023-03-29T23:39:02.078Z,84.24
2023-03-29T23:41:30.465Z,83.89
2023-03-29T23:43:57.561Z,84.07
2023-03-29T23:46:24.615Z,83.61
2023-03-29T23:48:51.715Z,83.15
2023-03-29T23:51:22.936Z,83.34
2023-03-29T23:53:49.794Z,82.79
2023-03-29T23:56:16.296Z,83.02
2023-03-29T23:58:42.758Z,82.46
